Time,TemperatureF,DewpointF,PressureIn,WindDirection,WindDirectionDegrees,WindSpeedMPH,WindSpeedGustMPH,Humidity,HourlyPrecipIn,Conditions,Clouds,dailyrainin,SolarRadiationWatts/m^2,SoftwareType,DateUTC
2013-07-17 15:15:00,89.0,48.6,29.97,West,273,4.0,12.0,25,0.00,,,0.00,828,Wunderground v.1.15,2013-07-17 22:15:00,
2013-07-17 15:20:00,89.0,49.7,29.97,WSW,257,4.0,4.0,26,0.00,,,0.00,814,Wunderground v.1.15,2013-07-17 22:20:00,
2013-07-17 15:25:00,89.0,49.7,29.97,WSW,257,3.0,12.0,26,0.00,,,0.00,810,Wunderground v.1.15,2013-07-17 22:25:00,
2013-07-17 15:30:00,90.1,48.4,29.97,WSW,241,2.0,12.0,24,0.00,,,0.00,798,Wunderground v.1.15,2013-07-17 22:30:00,
2013-07-17 15:35:00,90.2,46.2,29.96,SW,225,4.0,12.0,22,0.00,,,0.00,791,Wunderground v.1.15,2013-07-17 22:35:00,
2013-07-17 15:40:00,90.1,44.9,29.96,West,270,4.0,12.0,21,0.00,,,0.00,782,Wunderground v.1.15,2013-07-17 22:40:00,
2013-07-17 15:45:00,90.5,39.7,29.96,West,275,4.0,12.0,17,0.00,,,0.00,772,Wunderground v.1.15,2013-07-17 22:45:00,
2013-07-17 15:50:00,89.9,43.5,29.96,West,274,3.0,12.0,20,0.00,,,0.00,754,Wunderground v.1.15,2013-07-17 22:50:00,
2013-07-17 15:55:00,91.1,45.7,29.96,West,273,1.0,12.0,21,0.00,,,0.00,738,Wunderground v.1.15,2013-07-17 22:55:00,
2013-07-17 16:00:00,90.9,49.1,29.96,WNW,283,1.0,12.0,24,0.00,,,0.00,722,Wunderground v.1.15,2013-07-17 23:00:00,
2013-07-17 16:05:00,90.5,49.9,29.95,SW,226,3.0,12.0,25,0.00,,,0.00,708,Wunderground v.1.15,2013-07-17 23:05:00,
2013-07-17 16:10:00,90.0,49.5,29.95,SW,230,4.0,4.0,25,0.00,,,0.00,703,Wunderground v.1.15,2013-07-17 23:10:00,
2013-07-17 16:15:00,90.4,45.1,29.95,SW,229,4.0,12.0,21,0.00,,,0.00,689,Wunderground v.1.15,2013-07-17 23:15:00,
2013-07-17 16:20:00,91.1,45.7,29.95,West,263,4.0,12.0,21,0.00,,,0.00,675,Wunderground v.1.15,2013-07-17 23:20:00,
2013-07-17 16:25:00,91.0,46.9,29.95,West,271,6.0,12.0,22,0.00,,,0.00,661,Wunderground v.1.15,2013-07-17 23:25:00,
2013-07-17 16:30:00,90.8,46.7,29.95,West,281,5.0,5.0,22,0.00,,,0.00,647,Wunderground v.1.15,2013-07-17 23:30:00,
2013-07-17 16:35:00,91.0,45.6,29.95,WSW,248,4.0,12.0,21,0.00,,,0.00,633,Wunderground v.1.15,2013-07-17 23:35:00,
2013-07-17 16:40:00,91.0,45.6,29.95,SW,215,4.0,12.0,21,0.00,,,0.00,621,Wunderground v.1.15,2013-07-17 23:40:00,
2013-07-17 16:45:00,91.1,44.4,29.94,SSW,213,4.0,12.0,20,0.00,,,0.00,606,Wunderground v.1.15,2013-07-17 23:45:00,
2013-07-17 16:50:00,91.3,44.6,29.94,SW,227,4.0,4.0,20,0.00,,,0.00,589,Wunderground v.1.15,2013-07-17 23:50:00,
2013-07-17 16:55:00,91.3,43.3,29.94,SW,231,3.0,12.0,19,0.00,,,0.00,577,Wunderground v.1.15,2013-07-17 23:55:00,
2013-07-17 17:00:00,91.3,43.3,29.94,WSW,254,3.0,3.0,19,0.00,,,0.00,561,Wunderground v.1.15,2013-07-18 00:00:00,
2013-07-17 17:05:00,91.7,44.9,29.94,WNW,286,3.0,12.0,20,0.00,,,0.00,543,Wunderground v.1.15,2013-07-18 00:05:00,
2013-07-17 17:10:00,91.0,44.4,29.94,West,263,4.0,4.0,20,0.00,,,0.00,526,Wunderground v.1.15,2013-07-18 00:10:00,
2013-07-17 17:15:00,90.9,45.6,29.94,West,263,3.0,12.0,21,0.00,,,0.00,506,Wunderground v.1.15,2013-07-18 00:15:00,
2013-07-17 17:20:00,91.1,47.0,29.93,WSW,245,3.0,12.0,22,0.00,,,0.00,494,Wunderground v.1.15,2013-07-18 00:20:00,
2013-07-17 17:25:00,91.6,48.6,29.93,SW,225,4.0,12.0,23,0.00,,,0.00,473,Wunderground v.1.15,2013-07-18 00:25:00,
2013-07-17 17:30:00,91.9,48.8,29.93,SW,226,5.0,5.0,23,0.00,,,0.00,457,Wunderground v.1.15,2013-07-18 00:30:00,
2013-07-17 17:35:00,91.1,47.0,29.93,SW,223,5.0,12.0,22,0.00,,,0.00,446,Wunderground v.1.15,2013-07-18 00:35:00,
2013-07-17 17:40:00,91.4,48.4,29.93,SW,227,3.0,12.0,23,0.00,,,0.00,427,Wunderground v.1.15,2013-07-18 00:40:00,
2013-07-17 17:45:00,91.0,50.3,29.93,WSW,248,3.0,12.0,25,0.00,,,0.00,410,Wunderground v.1.15,2013-07-18 00:45:00,
2013-07-17 17:50:00,91.5,50.7,29.93,West,265,4.0,12.0,25,0.00,,,0.00,392,Wunderground v.1.15,2013-07-18 00:50:00,
2013-07-17 17:55:00,91.4,51.7,29.93,SSW,199,5.0,12.0,26,0.00,,,0.00,378,Wunderground v.1.15,2013-07-18 00:55:00,
2013-07-17 18:00:00,91.0,53.4,29.93,SW,222,5.0,12.0,28,0.00,,,0.00,360,Wunderground v.1.15,2013-07-18 01:00:00,
2013-07-17 18:05:00,90.8,53.2,29.93,SSW,213,5.0,12.0,28,0.00,,,0.00,343,Wunderground v.1.15,2013-07-18 01:05:00,
2013-07-17 18:10:00,90.8,54.2,29.93,SSW,199,5.0,5.0,29,0.00,,,0.00,325,Wunderground v.1.15,2013-07-18 01:10:00,
2013-07-17 18:15:00,89.8,54.2,29.93,SSW,209,5.0,7.0,30,0.00,,,0.00,308,Wunderground v.1.15,2013-07-18 01:15:00,
2013-07-17 18:20:00,89.9,54.3,29.93,SSW,198,6.0,12.0,30,0.00,,,0.00,294,Wunderground v.1.15,2013-07-18 01:20:00,
2013-07-17 18:25:00,90.0,54.4,29.93,SSW,205,6.0,12.0,30,0.00,,,0.00,276,Wunderground v.1.15,2013-07-18 01:25:00,
2013-07-17 18:30:00,89.6,54.1,29.93,South,171,6.0,12.0,30,0.00,,,0.00,260,Wunderground v.1.15,2013-07-18 01:30:00,
2013-07-17 18:35:00,89.1,54.5,29.93,SW,221,6.0,12.0,31,0.00,,,0.00,243,Wunderground v.1.15,2013-07-18 01:35:00,
2013-07-17 18:40:00,89.3,54.7,29.93,SW,217,6.0,12.0,31,0.00,,,0.00,223,Wunderground v.1.15,2013-07-18 01:40:00,
2013-07-17 18:45:00,89.0,54.4,29.93,SSW,194,5.0,12.0,31,0.00,,,0.00,204,Wunderground v.1.15,2013-07-18 01:45:00,
2013-07-17 18:50:00,88.5,55.7,29.93,South,189,6.0,12.0,33,0.00,,,0.00,183,Wunderground v.1.15,2013-07-18 01:50:00,
2013-07-17 18:55:00,87.4,56.4,29.93,South,190,7.0,12.0,35,0.00,,,0.00,163,Wunderground v.1.15,2013-07-18 01:55:00,
2013-07-17 19:00:00,86.6,56.5,29.93,SSW,207,8.0,8.0,36,0.00,,,0.00,146,Wunderground v.1.15,2013-07-18 02:00:00,
2013-07-17 19:05:00,85.9,55.8,29.93,SW,218,8.0,12.0,36,0.00,,,0.00,128,Wunderground v.1.15,2013-07-18 02:05:00,
2013-07-17 19:10:00,85.6,55.6,29.94,SSW,202,7.0,7.0,36,0.00,,,0.00,109,Wunderground v.1.15,2013-07-18 02:10:00,
2013-07-17 19:15:00,85.0,55.8,29.94,SW,217,7.0,9.0,37,0.00,,,0.00,93,Wunderground v.1.15,2013-07-18 02:15:00,
2013-07-17 19:20:00,84.6,55.5,29.94,SSW,207,7.0,12.0,37,0.00,,,0.00,69,Wunderground v.1.15,2013-07-18 02:20:00,
2013-07-17 19:25:00,84.3,55.9,29.94,SW,214,6.0,12.0,38,0.00,,,0.00,62,Wunderground v.1.15,2013-07-18 02:25:00,
2013-07-17 19:30:00,84.0,54.9,29.94,SW,219,6.0,12.0,37,0.00,,,0.00,47,Wunderground v.1.15,2013-07-18 02:30:00,
2013-07-17 19:35:00,83.7,55.4,29.94,SSW,211,6.0,12.0,38,0.00,,,0.00,39,Wunderground v.1.15,2013-07-18 02:35:00,
2013-07-17 19:40:00,83.3,55.8,29.94,SSW,205,6.0,12.0,39,0.00,,,0.00,28,Wunderground v.1.15,2013-07-18 02:40:00,
2013-07-17 19:45:00,82.9,55.4,29.94,SSW,213,5.0,12.0,39,0.00,,,0.00,21,Wunderground v.1.15,2013-07-18 02:45:00,
2013-07-17 19:50:00,82.3,54.9,29.94,SW,227,5.0,12.0,39,0.00,,,0.00,14,Wunderground v.1.15,2013-07-18 02:50:00,
2013-07-17 19:55:00,81.5,54.8,29.94,SSW,198,6.0,12.0,40,0.00,,,0.00,12,Wunderground v.1.15,2013-07-18 02:55:00,
2013-07-17 20:00:00,80.8,54.9,29.94,SSW,211,8.0,8.0,41,0.00,,,0.00,9,Wunderground v.1.15,2013-07-18 03:00:00,
2013-07-17 20:10:00,79.7,55.9,29.94,SW,229,7.0,7.0,44,0.00,,,0.00,5,Wunderground v.1.15,2013-07-18 03:10:00,
2013-07-17 20:15:00,79.4,56.2,29.94,South,190,6.0,12.0,45,0.00,,,0.00,0,Wunderground v.1.15,2013-07-18 03:15:00,
2013-07-17 20:20:00,78.9,56.4,29.94,SSW,211,5.0,12.0,46,0.00,,,0.00,0,Wunderground v.1.15,2013-07-18 03:20:00,
2013-07-17 20:25:00,78.3,57.0,29.94,SSW,202,5.0,12.0,48,0.00,,,0.00,0,Wunderground v.1.15,2013-07-18 03:25:00,
2013-07-17 20:30:00,78.0,57.3,29.94,SSW,205,5.0,5.0,49,0.00,,,0.00,0,Wunderground v.1.15,2013-07-18 03:30:00,
2013-07-17 20:35:00,77.5,57.4,29.94,SW,218,5.0,6.0,50,0.00,,,0.00,0,Wunderground v.1.15,2013-07-18 03:35:00,
2013-07-17 20:40:00,77.1,57.6,29.94,SSW,211,5.0,12.0,51,0.00,,,0.00,0,Wunderground v.1.15,2013-07-18 03:40:00,
2013-07-17 20:45:00,76.8,57.3,29.94,SSW,213,4.0,12.0,51,0.00,,,0.00,0,Wunderground v.1.15,2013-07-18 03:45:00,
2013-07-17 20:50:00,76.4,56.9,29.94,SSW,206,5.0,12.0,51,0.00,,,0.00,0,Wunderground v.1.15,2013-07-18 03:50:00,
2013-07-17 20:55:00,75.9,57.0,29.95,SSW,205,6.0,12.0,52,0.00,,,0.00,0,Wunderground v.1.15,2013-07-18 03:55:00,
2013-07-17 21:00:00,75.5,56.6,29.95,SSW,202,6.0,6.0,52,0.00,,,0.00,0,Wunderground v.1.15,2013-07-18 04:00:00,
2013-07-17 21:05:00,75.1,56.8,29.95,South,178,4.0,12.0,53,0.00,,,0.00,0,Wunderground v.1.15,2013-07-18 04:05:00,
2013-07-17 21:10:00,74.5,56.2,29.95,SSW,204,4.0,12.0,53,0.00,,,0.00,0,Wunderground v.1.15,2013-07-18 04:10:00,
2013-07-17 21:15:00,74.0,56.3,29.95,SW,219,5.0,12.0,54,0.00,,,0.00,0,Wunderground v.1.15,2013-07-18 04:15:00,
2013-07-17 21:20:00,73.6,56.4,29.95,SSW,204,5.0,5.0,55,0.00,,,0.00,0,Wunderground v.1.15,2013-07-18 04:20:00,
2013-07-17 21:25:00,73.4,56.2,29.95,SSW,198,4.0,6.0,55,0.00,,,0.00,0,Wunderground v.1.15,2013-07-18 04:25:00,
2013-07-17 21:30:00,72.9,55.8,29.96,SSW,209,5.0,12.0,55,0.00,,,0.00,0,Wunderground v.1.15,2013-07-18 04:30:00,
2013-07-17 21:35:00,72.5,55.4,29.96,SSW,195,6.0,12.0,55,0.00,,,0.00,0,Wunderground v.1.15,2013-07-18 04:35:00,
2013-07-17 21:40:00,72.1,55.5,29.96,SW,215,6.0,6.0,56,0.00,,,0.00,0,Wunderground v.1.15,2013-07-18 04:40:00,
2013-07-17 21:45:00,71.8,55.7,29.96,SSW,211,6.0,12.0,57,0.00,,,0.00,0,Wunderground v.1.15,2013-07-18 04:45:00,
2013-07-17 21:50:00,71.5,55.5,29.96,SSW,203,5.0,5.0,57,0.00,,,0.00,0,Wunderground v.1.15,2013-07-18 04:50:00,
2013-07-17 21:55:00,71.2,55.7,29.96,SSW,193,5.0,12.0,58,0.00,,,0.00,0,Wunderground v.1.15,2013-07-18 04:55:00,
2013-07-17 22:00:00,70.8,55.3,29.96,SSW,213,6.0,12.0,58,0.00,,,0.00,0,Wunderground v.1.15,2013-07-18 05:00:00,
2013-07-17 22:10:00,70.2,55.2,29.96,SSW,207,5.0,12.0,59,0.00,,,0.00,0,Wunderground v.1.15,2013-07-18 05:10:00,
2013-07-17 22:15:00,69.9,54.9,29.96,SW,220,5.0,12.0,59,0.00,,,0.00,0,Wunderground v.1.15,2013-07-18 05:15:00,
2013-07-17 22:20:00,69.7,54.7,29.96,SSW,205,5.0,12.0,59,0.00,,,0.00,0,Wunderground v.1.15,2013-07-18 05:20:00,
2013-07-17 22:25:00,69.3,54.8,29.96,SSW,205,5.0,12.0,60,0.00,,,0.00,0,Wunderground v.1.15,2013-07-18 05:25:00,
2013-07-17 22:30:00,68.9,54.4,29.96,SSW,207,5.0,12.0,60,0.00,,,0.00,0,Wunderground v.1.15,2013-07-18 05:30:00,
2013-07-17 22:35:00,68.7,54.7,29.96,SSW,207,5.0,12.0,61,0.00,,,0.00,0,Wunderground v.1.15,2013-07-18 05:35:00,
2013-07-17 22:40:00,68.6,54.6,29.96,SSW,198,3.0,12.0,61,0.00,,,0.00,0,Wunderground v.1.15,2013-07-18 05:40:00,
2013-07-17 22:45:00,68.3,54.3,29.96,SW,215,4.0,12.0,61,0.00,,,0.00,0,Wunderground v.1.15,2013-07-18 05:45:00,
2013-07-17 22:50:00,68.1,54.6,29.97,SW,219,4.0,12.0,62,0.00,,,0.00,0,Wunderground v.1.15,2013-07-18 05:50:00,
2013-07-17 22:55:00,67.8,54.3,29.97,SW,216,3.0,12.0,62,0.00,,,0.00,0,Wunderground v.1.15,2013-07-18 05:55:00,
2013-07-17 23:00:00,67.6,54.1,29.97,SW,225,3.0,12.0,62,0.00,,,0.00,0,Wunderground v.1.15,2013-07-18 06:00:00,
2013-07-17 23:05:00,67.4,54.4,29.97,SSW,200,3.0,12.0,63,0.00,,,0.00,0,Wunderground v.1.15,2013-07-18 06:05:00,
2013-07-17 23:10:00,67.5,54.5,29.97,SSW,200,2.0,2.0,63,0.00,,,0.00,0,Wunderground v.1.15,2013-07-18 06:10:00,
2013-07-17 23:15:00,67.4,54.4,29.97,South,184,1.0,12.0,63,0.00,,,0.00,0,Wunderground v.1.15,2013-07-18 06:15:00,
2013-07-17 23:20:00,67.0,54.0,29.97,South,185,2.0,2.0,63,0.00,,,0.00,0,Wunderground v.1.15,2013-07-18 06:20:00,
2013-07-17 23:25:00,67.1,54.1,29.97,South,185,1.0,12.0,63,0.00,,,0.00,0,Wunderground v.1.15,2013-07-18 06:25:00,
2013-07-17 23:30:00,66.7,53.7,29.98,South,185,0.0,12.0,63,0.00,,,0.00,0,Wunderground v.1.15,2013-07-18 06:30:00,
2013-07-17 23:35:00,66.7,54.1,29.98,South,185,0.0,12.0,64,0.00,,,0.00,0,Wunderground v.1.15,2013-07-18 06:35:00,
2013-07-17 23:40:00,66.7,54.1,29.98,South,185,0.0,12.0,64,0.00,,,0.00,0,Wunderground v.1.15,2013-07-18 06:40:00,
2013-07-17 23:45:00,66.6,54.0,29.98,South,169,1.0,12.0,64,0.00,,,0.00,0,Wunderground v.1.15,2013-07-18 06:45:00,
2013-07-17 23:50:00,66.2,54.1,29.98,South,178,3.0,3.0,65,0.00,,,0.00,0,Wunderground v.1.15,2013-07-18 06:50:00,
2013-07-17 23:55:00,66.1,54.0,29.98,South,178,2.0,12.0,65,0.00,,,0.00,0,Wunderground v.1.15,2013-07-18 06:55:00,